Pesotum, Illinois
Current Conditions -  °F | °C
As of 6:33 PM on Thursday 18 Dec 2014 (Local Time) from KCMI Reporting Station
Overcast Overcast  
Wind Chill: 22°   Ceiling: 1800
Heat Index: 28°   Visibility: 10mi
Dew Point: 23°   Wind: 6mph
Humidity: 81%   Direction: 320°NW
Pressure: 30.26"   Gusts: NA
Location:  39.91°N, 88.27°W
Report Text: KCMI 190033Z 32005KT 10SM BKN018 OVC060 M02/M05 A3026 RMK AO2 T10221050
Loading
Personal Weather Stations






























Interactive Weather Map New forecast layout! Learn more

10-Day Weather Forecast

Advertisements
Track Severe Weather on mobile